sensor_id;sensor_type;location;lat;lon;timestamp;P1;durP1;ratioP1;P2;durP2;ratioP2
77722;SDS011;67811;42.656;23.394;2023-04-15T00:01:22;3.20;;;1.35;;
77722;SDS011;67811;42.656;23.394;2023-04-15T00:03:49;0.65;;;0.65;;
77722;SDS011;67811;42.656;23.394;2023-04-15T00:06:16;2.15;;;1.38;;
77722;SDS011;67811;42.656;23.394;2023-04-15T00:08:41;2.67;;;1.55;;
77722;SDS011;67811;42.656;23.394;2023-04-15T00:11:06;2.75;;;1.95;;
77722;SDS011;67811;42.656;23.394;2023-04-15T00:13:31;2.80;;;2.03;;
77722;SDS011;67811;42.656;23.394;2023-04-15T00:15:57;1.45;;;1.00;;
77722;SDS011;67811;42.656;23.394;2023-04-15T00:18:23;2.50;;;1.77;;
77722;SDS011;67811;42.656;23.394;2023-04-15T00:20:48;1.90;;;1.50;;
77722;SDS011;67811;42.656;23.394;2023-04-15T00:23:13;2.78;;;1.77;;
77722;SDS011;67811;42.656;23.394;2023-04-15T00:25:39;2.25;;;1.73;;
77722;SDS011;67811;42.656;23.394;2023-04-15T00:28:04;2.90;;;1.10;;
77722;SDS011;67811;42.656;23.394;2023-04-15T00:30:29;2.42;;;1.98;;
77722;SDS011;67811;42.656;23.394;2023-04-15T00:32:55;2.67;;;2.47;;
77722;SDS011;67811;42.656;23.394;2023-04-15T00:35:20;3.08;;;1.90;;
77722;SDS011;67811;42.656;23.394;2023-04-15T00:37:45;3.25;;;2.25;;
77722;SDS011;67811;42.656;23.394;2023-04-15T00:40:11;3.58;;;2.00;;
77722;SDS011;67811;42.656;23.394;2023-04-15T00:42:37;2.40;;;2.10;;
77722;SDS011;67811;42.656;23.394;2023-04-15T00:45:03;3.10;;;2.25;;
77722;SDS011;67811;42.656;23.394;2023-04-15T00:47:28;6.70;;;2.28;;
77722;SDS011;67811;42.656;23.394;2023-04-15T00:49:55;2.50;;;1.90;;
77722;SDS011;67811;42.656;23.394;2023-04-15T00:52:21;2.30;;;1.48;;
77722;SDS011;67811;42.656;23.394;2023-04-15T00:54:46;2.97;;;1.67;;
77722;SDS011;67811;42.656;23.394;2023-04-15T00:57:11;2.38;;;1.95;;
77722;SDS011;67811;42.656;23.394;2023-04-15T00:59:36;1.98;;;1.67;;
77722;SDS011;67811;42.656;23.394;2023-04-15T01:02:02;1.55;;;1.45;;
77722;SDS011;67811;42.656;23.394;2023-04-15T01:04:27;4.88;;;2.25;;
77722;SDS011;67811;42.656;23.394;2023-04-15T01:06:53;2.38;;;1.80;;
77722;SDS011;67811;42.656;23.394;2023-04-15T01:09:18;1.95;;;1.75;;
77722;SDS011;67811;42.656;23.394;2023-04-15T01:11:44;1.70;;;1.23;;
77722;SDS011;67811;42.656;23.394;2023-04-15T01:14:09;2.40;;;1.85;;
77722;SDS011;67811;42.656;23.394;2023-04-15T01:16:35;3.33;;;2.17;;
77722;SDS011;67811;42.656;23.394;2023-04-15T01:19:01;4.30;;;1.58;;
77722;SDS011;67811;42.656;23.394;2023-04-15T01:21:27;2.40;;;1.35;;
77722;SDS011;67811;42.656;23.394;2023-04-15T01:23:52;1.75;;;1.05;;
77722;SDS011;67811;42.656;23.394;2023-04-15T01:26:19;2.67;;;0.88;;
77722;SDS011;67811;42.656;23.394;2023-04-15T01:28:45;2.38;;;1.95;;
77722;SDS011;67811;42.656;23.394;2023-04-15T01:31:11;2.22;;;1.65;;
77722;SDS011;67811;42.656;23.394;2023-04-15T01:33:38;2.20;;;1.60;;
77722;SDS011;67811;42.656;23.394;2023-04-15T01:36:05;2.28;;;1.88;;
77722;SDS011;67811;42.656;23.394;2023-04-15T01:38:31;3.30;;;1.58;;
77722;SDS011;67811;42.656;23.394;2023-04-15T01:40:57;2.47;;;2.10;;
77722;SDS011;67811;42.656;23.394;2023-04-15T01:43:22;1.65;;;1.55;;
77722;SDS011;67811;42.656;23.394;2023-04-15T01:45:48;2.28;;;1.40;;
77722;SDS011;67811;42.656;23.394;2023-04-15T01:48:13;3.70;;;1.67;;
77722;SDS011;67811;42.656;23.394;2023-04-15T01:50:38;1.95;;;1.52;;
77722;SDS011;67811;42.656;23.394;2023-04-15T01:53:03;5.97;;;1.55;;
77722;SDS011;67811;42.656;23.394;2023-04-15T01:55:29;5.20;;;2.15;;
77722;SDS011;67811;42.656;23.394;2023-04-15T01:57:54;4.00;;;1.92;;
77722;SDS011;67811;42.656;23.394;2023-04-15T02:00:19;4.35;;;2.55;;
77722;SDS011;67811;42.656;23.394;2023-04-15T02:02:45;3.17;;;1.88;;
77722;SDS011;67811;42.656;23.394;2023-04-15T02:05:10;2.22;;;1.85;;
77722;SDS011;67811;42.656;23.394;2023-04-15T02:07:35;1.85;;;1.52;;
77722;SDS011;67811;42.656;23.394;2023-04-15T02:10:01;3.17;;;2.88;;
77722;SDS011;67811;42.656;23.394;2023-04-15T02:12:26;3.72;;;2.42;;
77722;SDS011;67811;42.656;23.394;2023-04-15T02:14:51;6.00;;;3.67;;
77722;SDS011;67811;42.656;23.394;2023-04-15T02:17:16;7.72;;;3.15;;
77722;SDS011;67811;42.656;23.394;2023-04-15T02:19:41;2.15;;;1.95;;
77722;SDS011;67811;42.656;23.394;2023-04-15T02:22:07;2.97;;;1.60;;
77722;SDS011;67811;42.656;23.394;2023-04-15T02:24:32;2.38;;;1.67;;
77722;SDS011;67811;42.656;23.394;2023-04-15T02:26:58;3.38;;;1.83;;
77722;SDS011;67811;42.656;23.394;2023-04-15T02:29:23;1.95;;;1.55;;
77722;SDS011;67811;42.656;23.394;2023-04-15T02:31:49;1.90;;;1.60;;
77722;SDS011;67811;42.656;23.394;2023-04-15T02:34:14;1.58;;;1.45;;
77722;SDS011;67811;42.656;23.394;2023-04-15T02:36:39;3.13;;;1.60;;
77722;SDS011;67811;42.656;23.394;2023-04-15T02:39:05;1.60;;;1.25;;
77722;SDS011;67811;42.656;23.394;2023-04-15T02:41:30;3.05;;;1.98;;
77722;SDS011;67811;42.656;23.394;2023-04-15T02:43:56;2.13;;;1.85;;
77722;SDS011;67811;42.656;23.394;2023-04-15T02:46:21;2.47;;;2.08;;
77722;SDS011;67811;42.656;23.394;2023-04-15T02:48:46;13.20;;;2.10;;
77722;SDS011;67811;42.656;23.394;2023-04-15T02:51:13;5.30;;;2.05;;
77722;SDS011;67811;42.656;23.394;2023-04-15T02:53:40;7.95;;;2.08;;
77722;SDS011;67811;42.656;23.394;2023-04-15T02:56:05;2.53;;;1.83;;
77722;SDS011;67811;42.656;23.394;2023-04-15T02:58:31;2.28;;;2.08;;
77722;SDS011;67811;42.656;23.394;2023-04-15T03:00:56;4.03;;;2.22;;
77722;SDS011;67811;42.656;23.394;2023-04-15T03:03:21;3.15;;;1.98;;
77722;SDS011;67811;42.656;23.394;2023-04-15T03:05:46;2.45;;;1.33;;
77722;SDS011;67811;42.656;23.394;2023-04-15T03:08:12;3.90;;;2.10;;
77722;SDS011;67811;42.656;23.394;2023-04-15T03:10:37;5.82;;;2.47;;
77722;SDS011;67811;42.656;23.394;2023-04-15T03:13:02;3.85;;;2.50;;
77722;SDS011;67811;42.656;23.394;2023-04-15T03:15:29;4.25;;;2.33;;
77722;SDS011;67811;42.656;23.394;2023-04-15T03:17:54;2.55;;;1.95;;
77722;SDS011;67811;42.656;23.394;2023-04-15T03:20:19;2.13;;;2.03;;
77722;SDS011;67811;42.656;23.394;2023-04-15T03:22:45;5.65;;;2.67;;
77722;SDS011;67811;42.656;23.394;2023-04-15T03:25:10;3.00;;;1.85;;
77722;SDS011;67811;42.656;23.394;2023-04-15T03:27:36;2.17;;;1.98;;
77722;SDS011;67811;42.656;23.394;2023-04-15T03:30:02;2.20;;;1.60;;
77722;SDS011;67811;42.656;23.394;2023-04-15T03:32:27;3.45;;;2.53;;
77722;SDS011;67811;42.656;23.394;2023-04-15T03:34:53;5.30;;;2.63;;
77722;SDS011;67811;42.656;23.394;2023-04-15T03:37:18;4.05;;;2.40;;
77722;SDS011;67811;42.656;23.394;2023-04-15T03:39:43;2.60;;;1.83;;
77722;SDS011;67811;42.656;23.394;2023-04-15T03:42:08;3.70;;;2.08;;
77722;SDS011;67811;42.656;23.394;2023-04-15T03:44:34;3.00;;;1.95;;
77722;SDS011;67811;42.656;23.394;2023-04-15T03:46:59;2.83;;;1.55;;
77722;SDS011;67811;42.656;23.394;2023-04-15T03:49:24;2.38;;;1.95;;
77722;SDS011;67811;42.656;23.394;2023-04-15T03:51:49;2.42;;;2.22;;
77722;SDS011;67811;42.656;23.394;2023-04-15T03:54:15;4.40;;;2.42;;
77722;SDS011;67811;42.656;23.394;2023-04-15T03:56:40;4.05;;;1.92;;
77722;SDS011;67811;42.656;23.394;2023-04-15T03:59:05;7.30;;;1.88;;
77722;SDS011;67811;42.656;23.394;2023-04-15T04:01:31;2.60;;;2.38;;
77722;SDS011;67811;42.656;23.394;2023-04-15T04:03:56;8.40;;;2.38;;
77722;SDS011;67811;42.656;23.394;2023-04-15T04:06:21;2.83;;;1.88;;
77722;SDS011;67811;42.656;23.394;2023-04-15T04:08:46;4.05;;;2.25;;
77722;SDS011;67811;42.656;23.394;2023-04-15T04:11:12;3.70;;;1.38;;
77722;SDS011;67811;42.656;23.394;2023-04-15T04:13:37;3.50;;;1.80;;
77722;SDS011;67811;42.656;23.394;2023-04-15T04:16:03;3.05;;;2.00;;
77722;SDS011;67811;42.656;23.394;2023-04-15T04:18:28;2.75;;;1.10;;
77722;SDS011;67811;42.656;23.394;2023-04-15T04:20:54;4.05;;;2.60;;
77722;SDS011;67811;42.656;23.394;2023-04-15T04:23:19;3.72;;;2.53;;
77722;SDS011;67811;42.656;23.394;2023-04-15T04:25:44;3.15;;;2.05;;
77722;SDS011;67811;42.656;23.394;2023-04-15T04:28:09;4.22;;;2.30;;
77722;SDS011;67811;42.656;23.394;2023-04-15T04:30:35;5.05;;;2.58;;
77722;SDS011;67811;42.656;23.394;2023-04-15T04:33:00;6.38;;;3.33;;
77722;SDS011;67811;42.656;23.394;2023-04-15T04:35:25;5.35;;;2.97;;
77722;SDS011;67811;42.656;23.394;2023-04-15T04:37:51;3.85;;;2.28;;
77722;SDS011;67811;42.656;23.394;2023-04-15T04:40:16;6.38;;;3.90;;
77722;SDS011;67811;42.656;23.394;2023-04-15T04:42:41;5.07;;;2.75;;
77722;SDS011;67811;42.656;23.394;2023-04-15T04:45:07;4.72;;;2.92;;
77722;SDS011;67811;42.656;23.394;2023-04-15T04:47:32;5.13;;;3.80;;
77722;SDS011;67811;42.656;23.394;2023-04-15T04:49:58;7.47;;;3.95;;
77722;SDS011;67811;42.656;23.394;2023-04-15T04:52:23;9.93;;;3.75;;
77722;SDS011;67811;42.656;23.394;2023-04-15T04:54:48;6.90;;;3.22;;
77722;SDS011;67811;42.656;23.394;2023-04-15T04:57:13;5.40;;;3.42;;
77722;SDS011;67811;42.656;23.394;2023-04-15T04:59:39;5.90;;;3.95;;
77722;SDS011;67811;42.656;23.394;2023-04-15T05:02:04;6.72;;;3.75;;
77722;SDS011;67811;42.656;23.394;2023-04-15T05:04:30;5.90;;;4.30;;
77722;SDS011;67811;42.656;23.394;2023-04-15T05:06:56;6.20;;;3.72;;
77722;SDS011;67811;42.656;23.394;2023-04-15T05:09:21;6.32;;;3.47;;
77722;SDS011;67811;42.656;23.394;2023-04-15T05:11:47;6.75;;;3.55;;
77722;SDS011;67811;42.656;23.394;2023-04-15T05:14:12;5.75;;;3.08;;
77722;SDS011;67811;42.656;23.394;2023-04-15T05:16:37;3.30;;;2.58;;
77722;SDS011;67811;42.656;23.394;2023-04-15T05:19:02;3.88;;;2.97;;
77722;SDS011;67811;42.656;23.394;2023-04-15T05:21:28;3.95;;;2.53;;
77722;SDS011;67811;42.656;23.394;2023-04-15T05:23:53;5.68;;;3.10;;
77722;SDS011;67811;42.656;23.394;2023-04-15T05:26:18;4.40;;;1.92;;
77722;SDS011;67811;42.656;23.394;2023-04-15T05:28:44;4.95;;;2.63;;
77722;SDS011;67811;42.656;23.394;2023-04-15T05:31:09;4.57;;;2.50;;
77722;SDS011;67811;42.656;23.394;2023-04-15T05:33:35;3.00;;;2.15;;
77722;SDS011;67811;42.656;23.394;2023-04-15T05:36:00;4.63;;;3.22;;
77722;SDS011;67811;42.656;23.394;2023-04-15T05:38:26;4.85;;;2.83;;
77722;SDS011;67811;42.656;23.394;2023-04-15T05:40:51;4.05;;;2.67;;
77722;SDS011;67811;42.656;23.394;2023-04-15T05:43:16;5.70;;;3.20;;
77722;SDS011;67811;42.656;23.394;2023-04-15T05:45:41;6.80;;;3.75;;
77722;SDS011;67811;42.656;23.394;2023-04-15T05:48:07;3.92;;;2.70;;
77722;SDS011;67811;42.656;23.394;2023-04-15T05:50:32;4.78;;;3.90;;
77722;SDS011;67811;42.656;23.394;2023-04-15T05:52:57;9.15;;;3.67;;
77722;SDS011;67811;42.656;23.394;2023-04-15T05:55:23;7.97;;;4.20;;
77722;SDS011;67811;42.656;23.394;2023-04-15T05:57:48;6.95;;;3.72;;
77722;SDS011;67811;42.656;23.394;2023-04-15T06:00:13;4.07;;;2.90;;
77722;SDS011;67811;42.656;23.394;2023-04-15T06:02:39;5.88;;;2.83;;
77722;SDS011;67811;42.656;23.394;2023-04-15T06:05:04;3.85;;;1.98;;
77722;SDS011;67811;42.656;23.394;2023-04-15T06:07:29;4.30;;;2.30;;
77722;SDS011;67811;42.656;23.394;2023-04-15T06:09:55;4.85;;;3.10;;
77722;SDS011;67811;42.656;23.394;2023-04-15T06:12:20;7.22;;;2.92;;
77722;SDS011;67811;42.656;23.394;2023-04-15T06:14:45;7.15;;;2.63;;
77722;SDS011;67811;42.656;23.394;2023-04-15T06:17:10;4.53;;;2.70;;
77722;SDS011;67811;42.656;23.394;2023-04-15T06:19:36;4.40;;;2.53;;
77722;SDS011;67811;42.656;23.394;2023-04-15T06:22:01;4.90;;;2.30;;
77722;SDS011;67811;42.656;23.394;2023-04-15T06:24:27;5.82;;;2.22;;
77722;SDS011;67811;42.656;23.394;2023-04-15T06:26:52;4.78;;;1.90;;
77722;SDS011;67811;42.656;23.394;2023-04-15T06:29:18;1.95;;;1.35;;
77722;SDS011;67811;42.656;23.394;2023-04-15T06:31:43;3.13;;;2.63;;
77722;SDS011;67811;42.656;23.394;2023-04-15T06:34:08;2.95;;;2.28;;
77722;SDS011;67811;42.656;23.394;2023-04-15T06:36:33;4.40;;;2.40;;
77722;SDS011;67811;42.656;23.394;2023-04-15T06:38:59;5.95;;;2.42;;
77722;SDS011;67811;42.656;23.394;2023-04-15T06:41:24;4.22;;;1.83;;
77722;SDS011;67811;42.656;23.394;2023-04-15T06:43:49;4.10;;;2.13;;
77722;SDS011;67811;42.656;23.394;2023-04-15T06:46:15;3.83;;;1.58;;
77722;SDS011;67811;42.656;23.394;2023-04-15T06:48:40;3.83;;;1.90;;
77722;SDS011;67811;42.656;23.394;2023-04-15T06:51:05;4.10;;;1.88;;
77722;SDS011;67811;42.656;23.394;2023-04-15T06:53:31;2.97;;;1.77;;
77722;SDS011;67811;42.656;23.394;2023-04-15T06:55:56;3.03;;;1.30;;
77722;SDS011;67811;42.656;23.394;2023-04-15T06:58:21;3.20;;;1.77;;
77722;SDS011;67811;42.656;23.394;2023-04-15T07:00:46;4.50;;;1.77;;
77722;SDS011;67811;42.656;23.394;2023-04-15T07:03:12;3.08;;;1.60;;
77722;SDS011;67811;42.656;23.394;2023-04-15T07:05:37;3.85;;;1.00;;
77722;SDS011;67811;42.656;23.394;2023-04-15T07:08:03;4.88;;;1.33;;
77722;SDS011;67811;42.656;23.394;2023-04-15T07:10:29;3.53;;;1.25;;
77722;SDS011;67811;42.656;23.394;2023-04-15T07:12:55;3.20;;;1.50;;
77722;SDS011;67811;42.656;23.394;2023-04-15T07:15:20;4.97;;;1.70;;
77722;SDS011;67811;42.656;23.394;2023-04-15T07:17:46;3.45;;;1.45;;
77722;SDS011;67811;42.656;23.394;2023-04-15T07:20:11;6.80;;;1.65;;
77722;SDS011;67811;42.656;23.394;2023-04-15T07:22:37;4.40;;;1.23;;
77722;SDS011;67811;42.656;23.394;2023-04-15T07:25:02;5.28;;;1.70;;
77722;SDS011;67811;42.656;23.394;2023-04-15T07:27:28;2.15;;;1.33;;
77722;SDS011;67811;42.656;23.394;2023-04-15T07:29:53;2.85;;;1.52;;
77722;SDS011;67811;42.656;23.394;2023-04-15T07:32:18;5.47;;;2.03;;
77722;SDS011;67811;42.656;23.394;2023-04-15T07:34:44;2.50;;;1.90;;
77722;SDS011;67811;42.656;23.394;2023-04-15T07:37:09;2.67;;;1.35;;
77722;SDS011;67811;42.656;23.394;2023-04-15T07:39:35;7.35;;;1.98;;
77722;SDS011;67811;42.656;23.394;2023-04-15T07:42:00;4.03;;;1.80;;
77722;SDS011;67811;42.656;23.394;2023-04-15T07:44:26;3.92;;;1.95;;
77722;SDS011;67811;42.656;23.394;2023-04-15T07:46:51;3.78;;;1.95;;
77722;SDS011;67811;42.656;23.394;2023-04-15T07:49:16;3.53;;;1.40;;
77722;SDS011;67811;42.656;23.394;2023-04-15T07:51:41;4.18;;;1.85;;
77722;SDS011;67811;42.656;23.394;2023-04-15T07:54:07;5.47;;;1.33;;
77722;SDS011;67811;42.656;23.394;2023-04-15T07:56:32;3.28;;;1.70;;
77722;SDS011;67811;42.656;23.394;2023-04-15T07:58:57;5.28;;;1.58;;
77722;SDS011;67811;42.656;23.394;2023-04-15T08:01:23;4.13;;;1.60;;
77722;SDS011;67811;42.656;23.394;2023-04-15T08:03:48;3.85;;;1.58;;
77722;SDS011;67811;42.656;23.394;2023-04-15T08:06:13;3.65;;;1.48;;
77722;SDS011;67811;42.656;23.394;2023-04-15T08:08:38;3.58;;;1.70;;
77722;SDS011;67811;42.656;23.394;2023-04-15T08:11:04;4.53;;;1.92;;
77722;SDS011;67811;42.656;23.394;2023-04-15T08:13:29;3.38;;;1.75;;
77722;SDS011;67811;42.656;23.394;2023-04-15T08:18:42;3.80;;;1.63;;
77722;SDS011;67811;42.656;23.394;2023-04-15T08:21:08;3.28;;;1.60;;
77722;SDS011;67811;42.656;23.394;2023-04-15T08:23:34;6.45;;;2.08;;
77722;SDS011;67811;42.656;23.394;2023-04-15T08:25:59;1.73;;;0.98;;
77722;SDS011;67811;42.656;23.394;2023-04-15T08:28:24;4.07;;;1.30;;
77722;SDS011;67811;42.656;23.394;2023-04-15T08:30:51;7.00;;;1.80;;
77722;SDS011;67811;42.656;23.394;2023-04-15T08:33:17;3.95;;;1.70;;
77722;SDS011;67811;42.656;23.394;2023-04-15T08:35:42;3.08;;;1.65;;
77722;SDS011;67811;42.656;23.394;2023-04-15T08:38:07;2.22;;;1.13;;
77722;SDS011;67811;42.656;23.394;2023-04-15T08:40:34;2.05;;;1.00;;
77722;SDS011;67811;42.656;23.394;2023-04-15T08:43:06;2.47;;;1.20;;
77722;SDS011;67811;42.656;23.394;2023-04-15T08:45:35;3.05;;;1.27;;
77722;SDS011;67811;42.656;23.394;2023-04-15T08:48:02;2.25;;;1.13;;
77722;SDS011;67811;42.656;23.394;2023-04-15T08:50:29;4.35;;;1.65;;
77722;SDS011;67811;42.656;23.394;2023-04-15T08:52:56;4.22;;;2.20;;
77722;SDS011;67811;42.656;23.394;2023-04-15T08:55:24;2.63;;;1.55;;
77722;SDS011;67811;42.656;23.394;2023-04-15T08:57:53;3.40;;;1.52;;
77722;SDS011;67811;42.656;23.394;2023-04-15T09:00:19;3.67;;;1.20;;
77722;SDS011;67811;42.656;23.394;2023-04-15T09:02:45;4.25;;;1.00;;
77722;SDS011;67811;42.656;23.394;2023-04-15T09:05:10;3.22;;;1.20;;
77722;SDS011;67811;42.656;23.394;2023-04-15T09:07:35;2.50;;;1.02;;
77722;SDS011;67811;42.656;23.394;2023-04-15T09:10:02;1.58;;;0.90;;
77722;SDS011;67811;42.656;23.394;2023-04-15T09:12:28;2.45;;;1.15;;
77722;SDS011;67811;42.656;23.394;2023-04-15T09:14:53;1.67;;;0.85;;
77722;SDS011;67811;42.656;23.394;2023-04-15T09:17:18;1.85;;;0.85;;
77722;SDS011;67811;42.656;23.394;2023-04-15T09:19:44;2.70;;;0.82;;
77722;SDS011;67811;42.656;23.394;2023-04-15T09:22:09;2.97;;;1.00;;
77722;SDS011;67811;42.656;23.394;2023-04-15T09:24:35;1.65;;;0.65;;
77722;SDS011;67811;42.656;23.394;2023-04-15T09:27:02;2.30;;;0.60;;
77722;SDS011;67811;42.656;23.394;2023-04-15T09:29:28;2.55;;;0.60;;
77722;SDS011;67811;42.656;23.394;2023-04-15T09:31:53;1.42;;;0.70;;
77722;SDS011;67811;42.656;23.394;2023-04-15T09:34:19;0.90;;;0.60;;
77722;SDS011;67811;42.656;23.394;2023-04-15T09:36:52;0.88;;;0.57;;
77722;SDS011;67811;42.656;23.394;2023-04-15T09:39:18;2.58;;;0.80;;
77722;SDS011;67811;42.656;23.394;2023-04-15T09:41:44;1.48;;;0.80;;
77722;SDS011;67811;42.656;23.394;2023-04-15T09:44:25;3.85;;;0.65;;
77722;SDS011;67811;42.656;23.394;2023-04-15T09:46:51;1.60;;;0.50;;
77722;SDS011;67811;42.656;23.394;2023-04-15T09:49:16;1.55;;;0.38;;
77722;SDS011;67811;42.656;23.394;2023-04-15T09:51:42;1.77;;;0.40;;
77722;SDS011;67811;42.656;23.394;2023-04-15T09:54:07;0.80;;;0.63;;
77722;SDS011;67811;42.656;23.394;2023-04-15T09:56:36;0.90;;;0.43;;
77722;SDS011;67811;42.656;23.394;2023-04-15T09:59:05;1.67;;;0.57;;
77722;SDS011;67811;42.656;23.394;2023-04-15T10:01:31;3.33;;;0.55;;
77722;SDS011;67811;42.656;23.394;2023-04-15T10:03:57;1.55;;;0.63;;
77722;SDS011;67811;42.656;23.394;2023-04-15T10:06:24;3.33;;;0.80;;
77722;SDS011;67811;42.656;23.394;2023-04-15T10:08:50;1.63;;;0.60;;
77722;SDS011;67811;42.656;23.394;2023-04-15T10:11:16;3.50;;;0.60;;
77722;SDS011;67811;42.656;23.394;2023-04-15T10:13:42;2.53;;;0.60;;
77722;SDS011;67811;42.656;23.394;2023-04-15T10:16:11;1.13;;;0.40;;
77722;SDS011;67811;42.656;23.394;2023-04-15T10:18:40;1.08;;;0.70;;
77722;SDS011;67811;42.656;23.394;2023-04-15T10:21:07;1.38;;;0.68;;
77722;SDS011;67811;42.656;23.394;2023-04-15T10:23:33;1.42;;;0.38;;
77722;SDS011;67811;42.656;23.394;2023-04-15T10:25:59;1.00;;;0.50;;
77722;SDS011;67811;42.656;23.394;2023-04-15T10:28:24;2.78;;;0.70;;
77722;SDS011;67811;42.656;23.394;2023-04-15T10:30:51;1.77;;;0.90;;
77722;SDS011;67811;42.656;23.394;2023-04-15T10:33:17;1.38;;;0.63;;
77722;SDS011;67811;42.656;23.394;2023-04-15T10:35:45;2.00;;;0.80;;
77722;SDS011;67811;42.656;23.394;2023-04-15T10:41:18;2.55;;;0.70;;
77722;SDS011;67811;42.656;23.394;2023-04-15T10:43:53;1.02;;;0.60;;
77722;SDS011;67811;42.656;23.394;2023-04-15T10:46:38;1.10;;;0.80;;
77722;SDS011;67811;42.656;23.394;2023-04-15T10:49:09;1.23;;;0.70;;
77722;SDS011;67811;42.656;23.394;2023-04-15T10:51:37;1.33;;;0.90;;
77722;SDS011;67811;42.656;23.394;2023-04-15T10:54:15;1.65;;;0.88;;
77722;SDS011;67811;42.656;23.394;2023-04-15T10:59:24;1.77;;;0.63;;
77722;SDS011;67811;42.656;23.394;2023-04-15T11:01:50;4.68;;;0.60;;
77722;SDS011;67811;42.656;23.394;2023-04-15T11:05:05;1.17;;;0.70;;
77722;SDS011;67811;42.656;23.394;2023-04-15T11:08:05;1.15;;;0.60;;
77722;SDS011;67811;42.656;23.394;2023-04-15T11:12:42;2.13;;;0.70;;
77722;SDS011;67811;42.656;23.394;2023-04-15T11:17:52;1.90;;;0.70;;
77722;SDS011;67811;42.656;23.394;2023-04-15T11:20:18;1.80;;;0.60;;
77722;SDS011;67811;42.656;23.394;2023-04-15T11:22:50;2.67;;;0.75;;
77722;SDS011;67811;42.656;23.394;2023-04-15T11:25:23;1.33;;;0.50;;
77722;SDS011;67811;42.656;23.394;2023-04-15T11:27:50;1.38;;;0.40;;
77722;SDS011;67811;42.656;23.394;2023-04-15T11:30:17;2.22;;;0.80;;
77722;SDS011;67811;42.656;23.394;2023-04-15T11:32:44;1.30;;;0.50;;
77722;SDS011;67811;42.656;23.394;2023-04-15T11:35:09;1.38;;;0.80;;
77722;SDS011;67811;42.656;23.394;2023-04-15T11:37:34;2.72;;;0.50;;
77722;SDS011;67811;42.656;23.394;2023-04-15T11:40:01;1.00;;;0.60;;
77722;SDS011;67811;42.656;23.394;2023-04-15T11:42:26;2.47;;;0.73;;
77722;SDS011;67811;42.656;23.394;2023-04-15T11:45:04;1.95;;;0.98;;
77722;SDS011;67811;42.656;23.394;2023-04-15T11:47:32;1.52;;;0.47;;
77722;SDS011;67811;42.656;23.394;2023-04-15T11:50:12;1.70;;;0.63;;
77722;SDS011;67811;42.656;23.394;2023-04-15T11:52:38;4.15;;;0.70;;
77722;SDS011;67811;42.656;23.394;2023-04-15T11:55:03;3.33;;;1.38;;
77722;SDS011;67811;42.656;23.394;2023-04-15T11:57:31;3.72;;;0.50;;
77722;SDS011;67811;42.656;23.394;2023-04-15T11:59:56;2.08;;;0.70;;
77722;SDS011;67811;42.656;23.394;2023-04-15T12:02:28;2.25;;;0.65;;
77722;SDS011;67811;42.656;23.394;2023-04-15T12:05:05;1.67;;;0.60;;
77722;SDS011;67811;42.656;23.394;2023-04-15T12:07:30;2.70;;;0.70;;
77722;SDS011;67811;42.656;23.394;2023-04-15T12:09:56;2.53;;;0.68;;
77722;SDS011;67811;42.656;23.394;2023-04-15T12:12:25;1.48;;;0.40;;
77722;SDS011;67811;42.656;23.394;2023-04-15T12:14:51;5.15;;;0.93;;
77722;SDS011;67811;42.656;23.394;2023-04-15T12:17:17;0.90;;;0.57;;
77722;SDS011;67811;42.656;23.394;2023-04-15T12:19:42;1.85;;;0.50;;
77722;SDS011;67811;42.656;23.394;2023-04-15T12:22:08;1.23;;;0.52;;
77722;SDS011;67811;42.656;23.394;2023-04-15T12:24:35;1.70;;;0.47;;
77722;SDS011;67811;42.656;23.394;2023-04-15T12:27:04;0.82;;;0.40;;
77722;SDS011;67811;42.656;23.394;2023-04-15T12:29:31;2.67;;;0.88;;
77722;SDS011;67811;42.656;23.394;2023-04-15T12:32:10;2.88;;;0.55;;
77722;SDS011;67811;42.656;23.394;2023-04-15T12:34:43;0.77;;;0.40;;
77722;SDS011;67811;42.656;23.394;2023-04-15T12:37:14;0.98;;;0.50;;
77722;SDS011;67811;42.656;23.394;2023-04-15T12:39:40;0.82;;;0.32;;
77722;SDS011;67811;42.656;23.394;2023-04-15T12:42:06;0.85;;;0.60;;
77722;SDS011;67811;42.656;23.394;2023-04-15T12:44:33;0.95;;;0.40;;
77722;SDS011;67811;42.656;23.394;2023-04-15T12:46:59;3.08;;;0.50;;
77722;SDS011;67811;42.656;23.394;2023-04-15T12:49:25;1.20;;;0.30;;
77722;SDS011;67811;42.656;23.394;2023-04-15T12:51:54;0.32;;;0.22;;
77722;SDS011;67811;42.656;23.394;2023-04-15T12:54:20;2.60;;;0.40;;
77722;SDS011;67811;42.656;23.394;2023-04-15T12:56:46;1.73;;;0.35;;
77722;SDS011;67811;42.656;23.394;2023-04-15T13:01:38;1.50;;;0.40;;
77722;SDS011;67811;42.656;23.394;2023-04-15T13:04:04;0.30;;;0.28;;
77722;SDS011;67811;42.656;23.394;2023-04-15T13:06:30;2.03;;;0.50;;
77722;SDS011;67811;42.656;23.394;2023-04-15T13:08:55;1.58;;;0.30;;
77722;SDS011;67811;42.656;23.394;2023-04-15T13:11:24;4.07;;;0.50;;
77722;SDS011;67811;42.656;23.394;2023-04-15T13:13:50;1.77;;;0.43;;
77722;SDS011;67811;42.656;23.394;2023-04-15T13:16:15;3.03;;;0.40;;
77722;SDS011;67811;42.656;23.394;2023-04-15T13:18:40;1.45;;;0.60;;
77722;SDS011;67811;42.656;23.394;2023-04-15T13:21:05;0.30;;;0.20;;
77722;SDS011;67811;42.656;23.394;2023-04-15T13:23:31;0.68;;;0.20;;
77722;SDS011;67811;42.656;23.394;2023-04-15T13:25:56;0.77;;;0.30;;
77722;SDS011;67811;42.656;23.394;2023-04-15T13:28:21;1.25;;;0.47;;
77722;SDS011;67811;42.656;23.394;2023-04-15T13:30:47;0.85;;;0.30;;
77722;SDS011;67811;42.656;23.394;2023-04-15T13:33:12;0.98;;;0.40;;
77722;SDS011;67811;42.656;23.394;2023-04-15T13:35:38;0.60;;;0.30;;
77722;SDS011;67811;42.656;23.394;2023-04-15T13:38:03;0.30;;;0.20;;
77722;SDS011;67811;42.656;23.394;2023-04-15T13:40:29;2.78;;;0.60;;
77722;SDS011;67811;42.656;23.394;2023-04-15T13:42:54;1.20;;;0.35;;
77722;SDS011;67811;42.656;23.394;2023-04-15T13:45:19;0.57;;;0.32;;
77722;SDS011;67811;42.656;23.394;2023-04-15T13:47:45;2.28;;;0.30;;
77722;SDS011;67811;42.656;23.394;2023-04-15T13:50:10;2.92;;;0.43;;
77722;SDS011;67811;42.656;23.394;2023-04-15T13:52:35;0.60;;;0.32;;
77722;SDS011;67811;42.656;23.394;2023-04-15T13:55:01;1.30;;;0.50;;
77722;SDS011;67811;42.656;23.394;2023-04-15T13:57:27;0.35;;;0.28;;
77722;SDS011;67811;42.656;23.394;2023-04-15T13:59:52;1.73;;;0.38;;
77722;SDS011;67811;42.656;23.394;2023-04-15T14:02:19;1.00;;;0.30;;
77722;SDS011;67811;42.656;23.394;2023-04-15T14:04:45;0.63;;;0.30;;
77722;SDS011;67811;42.656;23.394;2023-04-15T14:07:10;2.33;;;0.50;;
77722;SDS011;67811;42.656;23.394;2023-04-15T14:09:36;0.55;;;0.30;;
77722;SDS011;67811;42.656;23.394;2023-04-15T14:12:01;0.47;;;0.30;;
77722;SDS011;67811;42.656;23.394;2023-04-15T14:14:26;1.70;;;0.38;;
77722;SDS011;67811;42.656;23.394;2023-04-15T14:16:52;0.70;;;0.43;;
77722;SDS011;67811;42.656;23.394;2023-04-15T14:19:19;1.27;;;0.60;;
77722;SDS011;67811;42.656;23.394;2023-04-15T14:21:44;1.15;;;0.40;;
77722;SDS011;67811;42.656;23.394;2023-04-15T14:24:09;1.70;;;0.50;;
77722;SDS011;67811;42.656;23.394;2023-04-15T14:26:35;1.08;;;0.50;;
77722;SDS011;67811;42.656;23.394;2023-04-15T14:29:00;1.05;;;0.50;;
77722;SDS011;67811;42.656;23.394;2023-04-15T14:31:25;5.20;;;0.70;;
77722;SDS011;67811;42.656;23.394;2023-04-15T14:33:51;3.22;;;0.68;;
77722;SDS011;67811;42.656;23.394;2023-04-15T14:36:16;1.55;;;0.60;;
77722;SDS011;67811;42.656;23.394;2023-04-15T14:38:41;2.10;;;0.75;;
77722;SDS011;67811;42.656;23.394;2023-04-15T14:41:07;2.15;;;0.40;;
77722;SDS011;67811;42.656;23.394;2023-04-15T14:43:33;2.35;;;0.60;;